Richland, New York
Current Conditions -  °F | °C
As of 2:54 AM on Thursday 29 Jan 2015 (Local Time) from KFZY Reporting Station
Clear Clear  
Wind Chill:   Ceiling: Unl
Heat Index:   Visibility: 10mi
Dew Point: -3°   Wind: 3mph
Humidity: 80%   Direction: 110°ESE
Pressure: 30.29"   Gusts: NA
Location:  43.57°N, 76.05°W
Report Text: KFZY 290754Z AUTO 11003KT 10SM CLR M17/M19 A3029 RMK AO2 SLP269 T11671194
Loading
Personal Weather Stations






























Interactive Weather Map New forecast layout! Learn more

10-Day Weather Forecast

Advertisements
Track Severe Weather on mobile